createdAt,value
2023-01-13T00:00:00.533Z,1.2
2023-01-13T00:15:00.515Z,1.2
2023-01-13T00:30:00.540Z,1.1
2023-01-13T00:45:00.609Z,1.0
2023-01-13T01:00:00.503Z,1.0
2023-01-13T01:15:00.508Z,0.9
2023-01-13T01:30:00.504Z,0.9
2023-01-13T01:45:00.556Z,0.9
2023-01-13T02:00:00.502Z,0.9
2023-01-13T02:15:00.488Z,0.9
2023-01-13T02:30:00.530Z,0.9
2023-01-13T02:45:00.587Z,0.9
2023-01-13T03:00:00.502Z,0.9
2023-01-13T03:15:00.504Z,0.9
2023-01-13T03:30:00.496Z,0.9
2023-01-13T03:45:00.556Z,0.9
2023-01-13T04:00:00.516Z,1.0
2023-01-13T04:15:00.508Z,1.1
2023-01-13T04:30:00.488Z,1.1
2023-01-13T04:45:00.667Z,1.2
2023-01-13T05:00:00.562Z,1.2
2023-01-13T05:15:00.516Z,1.3
2023-01-13T05:30:00.508Z,1.3
2023-01-13T05:45:00.665Z,1.3
2023-01-13T06:00:00.509Z,1.4
2023-01-13T06:15:00.507Z,1.4
2023-01-13T06:30:00.546Z,1.4
2023-01-13T06:45:00.607Z,1.5
2023-01-13T07:00:00.526Z,1.5
2023-01-13T07:15:00.525Z,1.6
2023-01-13T07:30:00.286Z,1.8
2023-01-13T07:45:00.369Z,1.8
2023-01-13T08:00:02.414Z,2.0
2023-01-13T08:15:00.300Z,2.2
2023-01-13T08:30:00.344Z,2.5
2023-01-13T08:45:00.356Z,2.7
2023-01-13T09:00:00.300Z,2.8
2023-01-13T09:15:00.316Z,3.0
2023-01-13T09:30:00.329Z,3.6
2023-01-13T09:45:00.379Z,4.2
2023-01-13T10:00:00.301Z,4.6
2023-01-13T10:15:00.322Z,5.1
2023-01-13T10:30:00.336Z,5.5
2023-01-13T10:45:00.416Z,5.7
2023-01-13T11:00:00.333Z,5.8
2023-01-13T11:15:00.322Z,6.1
2023-01-13T11:30:00.306Z,6.3
2023-01-13T11:45:00.360Z,6.7
2023-01-13T12:00:00.281Z,7.4
2023-01-13T12:15:00.349Z,7.8
2023-01-13T12:30:00.300Z,8.2
2023-01-13T12:45:00.385Z,8.4
2023-01-13T13:00:00.307Z,8.6
2023-01-13T13:15:01.646Z,8.7
2023-01-13T13:30:00.325Z,8.7
2023-01-13T13:45:00.406Z,8.6
2023-01-13T14:00:00.292Z,8.5
2023-01-13T14:15:00.284Z,8.4
2023-01-13T14:30:00.312Z,8.2
2023-01-13T14:45:00.311Z,8.0
2023-01-13T15:00:00.224Z,7.7
2023-01-13T15:15:00.257Z,7.3
2023-01-13T15:30:00.340Z,7.1
2023-01-13T15:45:00.269Z,6.7
2023-01-13T16:00:00.220Z,6.4
2023-01-13T16:15:00.226Z,6.1
2023-01-13T16:30:00.261Z,5.8
2023-01-13T16:45:00.340Z,5.5
2023-01-13T17:00:00.393Z,5.2
2023-01-13T17:15:00.554Z,4.9
2023-01-13T17:30:00.561Z,4.8
2023-01-13T17:45:00.541Z,4.7
2023-01-13T18:00:00.603Z,4.6
2023-01-13T18:15:00.525Z,4.5
2023-01-13T18:30:00.560Z,4.4
2023-01-13T18:45:00.565Z,4.2
2023-01-13T19:00:00.606Z,4.0
2023-01-13T19:15:00.575Z,3.7
2023-01-13T19:30:01.122Z,3.6
2023-01-13T19:45:00.544Z,3.5
2023-01-13T20:00:00.594Z,3.5
2023-01-13T20:15:00.594Z,3.6
2023-01-13T20:30:00.643Z,3.6
2023-01-13T20:45:00.622Z,3.6
2023-01-13T21:00:00.673Z,3.4
2023-01-13T21:15:00.585Z,3.4
2023-01-13T21:30:00.706Z,3.2
2023-01-13T21:45:00.547Z,3.1
2023-01-13T22:00:00.538Z,2.8
2023-01-13T22:15:00.537Z,2.5
2023-01-13T22:30:00.597Z,2.3
2023-01-13T22:45:00.531Z,2.3
2023-01-13T23:00:00.530Z,2.2
2023-01-13T23:15:00.554Z,2.1
2023-01-13T23:30:00.601Z,2.0
2023-01-13T23:45:00.521Z,1.9
